Time;durP1;ratioP1;P1;durP2;ratioP2;P2;SDS_P1;SDS_P2;PMS_P1;PMS_P2;Temp;Humidity;BMP_temperature;BMP_pressure;BME280_temperature;BME280_humidity;BME280_pressure;Samples;Min_cycle;Max_cycle;Signal;HPM_P1;HPM_P2
2022/03/08 00:01:11;;;;;;;0.30;0.30;;;;;;;19.45;30.28;101999.31;5122064;28;20217;-30
2022/03/08 00:03:37;;;;;;;0.20;0.20;;;;;;;19.45;30.67;101999.31;5125481;28;20422;-33
2022/03/08 00:06:03;;;;;;;0.20;0.20;;;;;;;19.43;30.55;102005.09;5125128;28;20035;-30
2022/03/08 00:08:29;;;;;;;0.20;0.20;;;;;;;19.44;30.63;101997.63;5106430;28;20540;-30
2022/03/08 00:10:55;;;;;;;0.20;0.20;;;;;;;19.46;30.29;101992.69;5123609;28;20055;-34
2022/03/08 00:13:21;;;;;;;0.20;0.20;;;;;;;19.43;30.52;101991.28;5125771;28;20067;-32
2022/03/08 00:15:47;;;;;;;0.20;0.20;;;;;;;19.45;30.42;101983.56;5106207;28;20043;-29
2022/03/08 00:18:13;;;;;;;0.30;0.30;;;;;;;19.44;30.44;101981.06;5124181;28;20051;-31
2022/03/08 00:20:39;;;;;;;0.20;0.20;;;;;;;19.45;30.54;101979.97;5123653;28;20035;-34
2022/03/08 00:23:04;;;;;;;0.20;0.20;;;;;;;19.44;30.45;101981.06;5124591;28;20058;-31
2022/03/08 00:25:30;;;;;;;0.20;0.20;;;;;;;19.42;30.50;101975.78;5124868;28;20047;-30
2022/03/08 00:27:56;;;;;;;0.20;0.20;;;;;;;19.42;30.64;101969.41;5125111;28;20051;-33
2022/03/08 00:30:24;;;;;;;0.30;0.30;;;;;;;19.43;30.71;101973.84;5125688;27;20516;-32
2022/03/08 00:32:51;;;;;;;0.20;0.20;;;;;;;19.42;30.80;101970.25;5124259;28;20102;-30
2022/03/08 00:35:18;;;;;;;0.20;0.20;;;;;;;19.43;30.52;101968.31;5123708;28;20078;-31
2022/03/08 00:37:47;;;;;;;0.20;0.20;;;;;;;19.41;30.74;101962.22;5104017;28;20508;-30
2022/03/08 00:40:13;;;;;;;0.30;0.30;;;;;;;19.41;30.73;101960.31;5123115;28;20100;-32
2022/03/08 00:42:39;;;;;;;0.20;0.20;;;;;;;19.42;30.52;101961.97;5123903;28;20043;-32
2022/03/08 00:45:07;;;;;;;0.20;0.20;;;;;;;19.41;30.73;101956.72;5104164;28;20305;-30
2022/03/08 00:47:35;;;;;;;0.20;0.20;;;;;;;19.41;30.87;101953.94;5125239;28;20412;-29
2022/03/08 00:50:01;;;;;;;0.25;0.25;;;;;;;19.40;30.82;101953.13;5123898;28;21788;-31
2022/03/08 00:52:27;;;;;;;0.20;0.20;;;;;;;19.42;30.58;101966.66;5121362;28;20075;-31
2022/03/08 00:54:53;;;;;;;0.20;0.20;;;;;;;19.41;30.81;101959.47;5123395;28;20062;-31
2022/03/08 00:57:18;;;;;;;0.20;0.20;;;;;;;19.41;30.65;101965.00;5123963;28;20039;-29
2022/03/08 00:59:44;;;;;;;0.20;0.20;;;;;;;19.41;30.98;101967.75;5123213;28;20035;-31
2022/03/08 01:02:10;;;;;;;0.20;0.20;;;;;;;19.41;30.82;101965.00;5124135;28;20043;-29
2022/03/08 01:04:36;;;;;;;0.20;0.20;;;;;;;19.40;30.69;101966.94;5124187;28;20039;-31
2022/03/08 01:07:02;;;;;;;0.20;0.20;;;;;;;19.41;30.61;101962.22;5122753;28;20042;-32
2022/03/08 01:09:27;;;;;;;0.20;0.20;;;;;;;19.38;30.75;101955.28;5123990;28;20050;-30
2022/03/08 01:11:53;;;;;;;0.20;0.20;;;;;;;19.40;30.89;101955.06;5124165;28;20039;-31
2022/03/08 01:14:19;;;;;;;0.20;0.20;;;;;;;19.40;30.87;101953.13;5122234;28;20413;-32
2022/03/08 01:16:44;;;;;;;0.20;0.20;;;;;;;19.40;30.63;101952.28;5123556;28;20126;-33
2022/03/08 01:19:10;;;;;;;0.30;0.30;;;;;;;19.40;30.82;101944.00;5124314;28;20043;-31
2022/03/08 01:21:36;;;;;;;0.20;0.20;;;;;;;19.39;30.79;101951.44;5102617;28;20096;-32
2022/03/08 01:24:03;;;;;;;0.20;0.20;;;;;;;19.40;30.80;101952.28;5122577;28;20072;-33
2022/03/08 01:26:28;;;;;;;0.20;0.20;;;;;;;19.40;30.73;101955.06;5123447;28;20626;-31
2022/03/08 01:28:55;;;;;;;0.20;0.20;;;;;;;19.38;30.92;101955.28;5121885;28;20140;-30
2022/03/08 01:31:22;;;;;;;0.20;0.20;;;;;;;19.39;30.63;101953.38;5123329;27;20445;-33
2022/03/08 01:33:49;;;;;;;0.20;0.20;;;;;;;19.37;30.76;101959.16;5123800;28;20458;-31
2022/03/08 01:36:15;;;;;;;0.20;0.20;;;;;;;19.37;30.63;101948.09;5124260;28;20277;-33
2022/03/08 01:38:42;;;;;;;0.20;0.20;;;;;;;19.36;30.91;101951.13;5102825;28;20066;-31
2022/03/08 01:41:08;;;;;;;0.20;0.20;;;;;;;19.36;30.72;101946.44;5124017;28;20043;-30
2022/03/08 01:43:34;;;;;;;0.20;0.20;;;;;;;19.36;30.83;101938.16;5123667;28;20485;-30
2022/03/08 01:45:59;;;;;;;0.20;0.20;;;;;;;19.37;30.76;101934.28;5120947;27;20099;-31
2022/03/08 01:48:27;;;;;;;0.20;0.20;;;;;;;19.37;30.76;101930.69;5124376;28;20039;-34
2022/03/08 01:50:52;;;;;;;0.20;0.20;;;;;;;19.36;30.85;101934.56;5121455;28;20074;-30
2022/03/08 01:53:19;;;;;;;0.20;0.20;;;;;;;19.36;31.04;101931.78;5120987;28;20051;-30
2022/03/08 01:55:44;;;;;;;0.20;0.20;;;;;;;19.35;30.80;101930.97;5123072;28;20042;-30
2022/03/08 01:58:15;;;;;;;0.20;0.20;;;;;;;19.36;30.97;101927.09;5122879;28;20545;-32
2022/03/08 02:00:41;;;;;;;0.20;0.20;;;;;;;19.36;30.82;101929.88;5122753;28;20061;-32
2022/03/08 02:03:06;;;;;;;0.20;0.20;;;;;;;19.35;30.72;101922.69;5121514;28;20130;-30
2022/03/08 02:05:32;;;;;;;0.20;0.20;;;;;;;19.35;30.99;101919.91;5120726;28;20478;-31
2022/03/08 02:07:58;;;;;;;0.20;0.20;;;;;;;19.36;31.26;101916.06;5122981;28;20079;-31
2022/03/08 02:10:24;;;;;;;0.20;0.20;;;;;;;19.35;30.89;101917.16;5122403;28;20470;-31
2022/03/08 02:12:50;;;;;;;0.20;0.20;;;;;;;19.36;30.79;101915.22;5104866;28;20082;-30
2022/03/08 02:15:30;;;;;;;0.20;0.20;;;;;;;19.36;30.73;101924.34;5122597;28;20189;-32
2022/03/08 02:17:58;;;;;;;0.20;0.20;;;;;;;19.34;30.93;101909.94;5123017;28;20074;-32
2022/03/08 02:20:24;;;;;;;0.20;0.20;;;;;;;19.35;30.86;101908.03;5102609;28;20280;-31
2022/03/08 02:22:50;;;;;;;0.20;0.20;;;;;;;19.35;31.14;101894.22;5121122;28;20289;-32
2022/03/08 02:25:17;;;;;;;0.20;0.20;;;;;;;19.34;30.65;101898.06;5118421;28;20473;-30
2022/03/08 02:27:45;;;;;;;0.20;0.20;;;;;;;19.35;30.77;101889.53;5103548;28;20051;-32
2022/03/08 02:30:13;;;;;;;0.15;0.15;;;;;;;19.33;30.82;101888.09;5122684;28;20459;-32
2022/03/08 02:32:39;;;;;;;0.20;0.20;;;;;;;19.33;31.09;101880.66;5104821;28;20043;-33
2022/03/08 02:35:17;;;;;;;0.20;0.20;;;;;;;19.34;30.95;101878.72;5121534;28;20075;-32
2022/03/08 02:37:45;;;;;;;0.20;0.20;;;;;;;19.34;30.84;101870.44;5104033;28;20433;-33
2022/03/08 02:40:13;;;;;;;0.20;0.20;;;;;;;19.34;30.85;101878.72;5122898;28;20531;-31
2022/03/08 02:42:39;;;;;;;0.20;0.20;;;;;;;19.33;31.17;101877.88;5121484;28;20055;-32
2022/03/08 02:45:06;;;;;;;0.20;0.20;;;;;;;19.33;30.91;101877.06;5122863;28;20050;-30
2022/03/08 02:47:31;;;;;;;0.20;0.20;;;;;;;19.34;31.23;101875.97;5121128;28;20397;-31
2022/03/08 02:49:57;;;;;;;0.20;0.20;;;;;;;19.35;30.93;101872.13;5121650;28;20047;-31
2022/03/08 02:52:23;;;;;;;0.20;0.20;;;;;;;19.34;30.86;101868.50;5119385;28;20095;-34
2022/03/08 02:54:49;;;;;;;0.20;0.20;;;;;;;19.33;31.10;101869.59;5122428;28;20104;-31
2022/03/08 02:57:14;;;;;;;0.20;0.20;;;;;;;19.33;31.11;101877.06;5122700;27;20039;-31
2022/03/08 02:59:40;;;;;;;0.20;0.20;;;;;;;19.33;31.09;101877.06;5123273;28;20128;-30
2022/03/08 03:02:06;;;;;;;0.20;0.20;;;;;;;19.34;31.00;101871.25;5125848;28;20443;-31
2022/03/08 03:04:32;;;;;;;0.20;0.20;;;;;;;19.32;30.93;101869.88;5126204;28;20039;-30
2022/03/08 03:06:58;;;;;;;0.20;0.20;;;;;;;19.33;31.03;101871.53;5124925;28;20051;-30
2022/03/08 03:09:24;;;;;;;0.20;0.20;;;;;;;19.32;30.94;101861.59;5126285;28;20039;-35
2022/03/08 03:11:49;;;;;;;0.20;0.20;;;;;;;19.33;30.93;101864.06;5125259;28;20039;-30
2022/03/08 03:14:15;;;;;;;0.20;0.20;;;;;;;19.32;31.21;101870.72;5125513;28;20274;-32
2022/03/08 03:16:41;;;;;;;0.20;0.20;;;;;;;19.30;31.27;101870.97;5125447;28;20039;-31
2022/03/08 03:19:07;;;;;;;0.22;0.22;;;;;;;19.31;31.26;101860.75;5125793;28;20516;-31
2022/03/08 03:21:33;;;;;;;0.20;0.20;;;;;;;19.31;31.02;101863.53;5124657;28;20077;-30
2022/03/08 03:23:58;;;;;;;0.22;0.22;;;;;;;19.32;30.96;101865.19;5105980;28;20546;-31
2022/03/08 03:26:24;;;;;;;0.20;0.20;;;;;;;19.34;31.08;101864.91;5125465;28;20043;-30
2022/03/08 03:28:50;;;;;;;0.20;0.20;;;;;;;19.33;31.14;101857.72;5125491;28;20039;-33
2022/03/08 03:31:16;;;;;;;0.30;0.30;;;;;;;19.32;31.15;101856.91;5103952;28;20047;-31
2022/03/08 03:33:41;;;;;;;0.28;0.28;;;;;;;19.31;31.29;101844.19;5122083;28;20204;-34
2022/03/08 03:36:07;;;;;;;0.20;0.20;;;;;;;19.30;31.02;101854.41;5123705;28;20039;-30
2022/03/08 03:38:33;;;;;;;0.20;0.20;;;;;;;19.30;30.94;101851.63;5123797;28;20994;-35
2022/03/08 03:40:59;;;;;;;0.20;0.20;;;;;;;19.31;30.98;101849.72;5124769;28;20058;-30
2022/03/08 03:43:24;;;;;;;0.20;0.20;;;;;;;19.32;31.06;101854.13;5123169;28;20640;-30
2022/03/08 03:45:50;;;;;;;0.30;0.30;;;;;;;19.32;31.03;101853.31;5124722;28;20453;-31
2022/03/08 03:48:16;;;;;;;0.30;0.30;;;;;;;19.30;31.01;101851.63;5125602;28;20043;-33
2022/03/08 03:50:42;;;;;;;0.25;0.25;;;;;;;19.29;31.21;101846.34;5121838;28;20394;-33
2022/03/08 03:53:08;;;;;;;0.30;0.30;;;;;;;19.30;31.10;101850.81;5124844;28;20055;-30
2022/03/08 03:55:34;;;;;;;0.20;0.20;;;;;;;19.30;31.17;101848.88;5122917;28;20085;-31
2022/03/08 03:57:59;;;;;;;0.20;0.20;;;;;;;19.30;31.27;101845.28;5124395;28;20039;-31
2022/03/08 04:00:25;;;;;;;0.25;0.25;;;;;;;19.29;31.29;101843.59;5122755;28;20055;-30
2022/03/08 04:02:51;;;;;;;0.30;0.30;;;;;;;19.28;31.25;101840.00;5122659;28;20205;-31
2022/03/08 04:05:17;;;;;;;0.20;0.20;;;;;;;19.30;31.16;101834.25;5124883;28;20058;-30
2022/03/08 04:07:43;;;;;;;0.25;0.25;;;;;;;19.30;31.09;101831.47;5124463;28;20138;-31
2022/03/08 04:10:10;;;;;;;0.20;0.20;;;;;;;19.29;31.13;101825.09;5124206;27;20194;-30
2022/03/08 04:12:35;;;;;;;0.20;0.20;;;;;;;19.28;31.26;101828.13;5122714;28;20400;-31
2022/03/08 04:15:01;;;;;;;0.30;0.30;;;;;;;19.29;31.07;101827.84;5122233;28;20047;-30
2022/03/08 04:17:27;;;;;;;0.30;0.30;;;;;;;19.29;31.12;101824.25;5124679;28;20039;-31
2022/03/08 04:19:52;;;;;;;0.30;0.30;;;;;;;19.29;31.11;101827.84;5125442;28;20382;-31
2022/03/08 04:22:18;;;;;;;0.30;0.30;;;;;;;19.28;31.12;101823.44;5123404;28;20043;-30
2022/03/08 04:24:44;;;;;;;0.20;0.20;;;;;;;19.29;31.11;101819.56;5124495;28;20036;-30
2022/03/08 04:27:09;;;;;;;0.20;0.20;;;;;;;19.28;31.11;101819.84;5124447;28;20051;-30
2022/03/08 04:29:35;;;;;;;0.20;0.20;;;;;;;19.28;31.14;101820.66;5124441;27;20043;-30
2022/03/08 04:32:01;;;;;;;0.30;0.30;;;;;;;19.29;31.44;101818.75;5123273;28;20047;-31
2022/03/08 04:34:26;;;;;;;0.30;0.30;;;;;;;19.29;31.42;101816.81;5124436;28;20043;-30
2022/03/08 04:36:52;;;;;;;0.30;0.30;;;;;;;19.29;31.33;101815.97;5125197;28;20703;-32
2022/03/08 04:39:18;;;;;;;0.30;0.30;;;;;;;19.29;31.22;101815.97;5124379;28;20126;-30
2022/03/08 04:41:44;;;;;;;0.30;0.30;;;;;;;19.28;31.21;101809.63;5124318;28;20520;-31
2022/03/08 04:44:09;;;;;;;0.30;0.30;;;;;;;19.29;31.30;101813.22;5123396;28;20055;-30
2022/03/08 04:46:41;;;;;;;0.30;0.30;;;;;;;19.28;31.44;101817.91;5124749;28;20074;-31
2022/03/08 04:49:06;;;;;;;0.20;0.20;;;;;;;19.27;31.29;101815.41;5124110;28;20168;-33
2022/03/08 04:51:32;;;;;;;0.20;0.20;;;;;;;19.29;31.38;101818.75;5122814;28;20178;-34
2022/03/08 04:53:58;;;;;;;0.22;0.22;;;;;;;19.29;31.26;101819.56;5122595;28;20078;-31
2022/03/08 04:56:24;;;;;;;0.30;0.30;;;;;;;19.26;31.20;101817.34;5105032;28;20074;-34
2022/03/08 04:58:49;;;;;;;0.20;0.20;;;;;;;19.27;31.41;101824.53;5123201;28;20385;-33
2022/03/08 05:01:19;;;;;;;0.20;0.20;;;;;;;19.26;31.31;101819.28;5122914;28;20055;-32
2022/03/08 05:03:45;;;;;;;0.30;0.30;;;;;;;19.27;31.33;101823.69;5124166;28;20058;-29
2022/03/08 05:06:11;;;;;;;0.20;0.20;;;;;;;19.27;31.26;101820.94;5123469;28;20488;-31
2022/03/08 05:08:37;;;;;;;0.20;0.20;;;;;;;19.27;31.29;101824.53;5123543;28;20046;-30
2022/03/08 05:11:02;;;;;;;0.30;0.30;;;;;;;19.28;31.23;101828.97;5102723;28;20082;-30
2022/03/08 05:13:29;;;;;;;0.30;0.30;;;;;;;19.27;31.23;101830.06;5125367;28;20542;-31
2022/03/08 05:15:55;;;;;;;0.20;0.20;;;;;;;19.27;31.45;101832.81;5120879;27;20039;-30
2022/03/08 05:18:21;;;;;;;0.28;0.28;;;;;;;19.26;31.36;101822.88;5124819;28;20053;-30
2022/03/08 05:20:47;;;;;;;0.30;0.30;;;;;;;19.26;31.31;101822.03;5121938;27;20047;-31
2022/03/08 05:23:13;;;;;;;0.20;0.20;;;;;;;19.28;31.45;101823.44;5124197;28;21291;-29
2022/03/08 05:25:39;;;;;;;0.20;0.20;;;;;;;19.27;31.20;101821.78;5123974;28;20656;-30
2022/03/08 05:28:04;;;;;;;0.20;0.20;;;;;;;19.27;31.31;101818.19;5122297;28;20047;-30
2022/03/08 05:30:30;;;;;;;0.20;0.20;;;;;;;19.28;31.26;101808.78;5122969;27;20786;-31
2022/03/08 05:32:56;;;;;;;0.30;0.30;;;;;;;19.25;31.32;101803.78;5123442;28;20354;-33
2022/03/08 05:35:22;;;;;;;0.30;0.30;;;;;;;19.26;31.40;101802.72;5124942;28;20039;-33
2022/03/08 05:37:47;;;;;;;0.20;0.20;;;;;;;19.26;31.25;101806.31;5122678;28;20184;-30
2022/03/08 05:40:13;;;;;;;0.30;0.30;;;;;;;19.25;31.39;101812.91;5120310;28;20084;-30
2022/03/08 05:42:39;;;;;;;0.20;0.20;;;;;;;19.26;31.47;101820.13;5122356;28;20062;-30
2022/03/08 05:45:07;;;;;;;0.20;0.20;;;;;;;19.27;31.44;101820.94;5122936;28;20043;-30
2022/03/08 05:47:34;;;;;;;0.20;0.20;;;;;;;19.25;31.55;101815.66;5121636;28;20075;-31
2022/03/08 05:49:59;;;;;;;0.20;0.20;;;;;;;19.24;31.30;101822.28;5121875;28;20139;-30
2022/03/08 05:52:25;;;;;;;0.30;0.30;;;;;;;19.26;31.35;101824.81;5119390;28;20074;-32
2022/03/08 05:54:51;;;;;;;0.20;0.20;;;;;;;19.23;31.31;101820.63;5121099;28;20083;-31
2022/03/08 05:57:16;;;;;;;0.20;0.20;;;;;;;19.24;31.52;101827.81;5123237;28;20047;-30
2022/03/08 05:59:44;;;;;;;0.28;0.28;;;;;;;19.26;31.45;101841.38;5122081;28;20096;-30
2022/03/08 06:02:11;;;;;;;0.20;0.20;;;;;;;19.26;31.38;101833.91;5121788;28;20145;-31
2022/03/08 06:04:37;;;;;;;0.20;0.20;;;;;;;19.26;31.29;101836.69;5103106;28;20039;-31
2022/03/08 06:07:03;;;;;;;0.30;0.30;;;;;;;19.24;31.39;101833.31;5122551;28;20268;-30
2022/03/08 06:09:28;;;;;;;0.30;0.30;;;;;;;19.24;31.24;101838.84;5122371;28;20112;-32
2022/03/08 06:11:54;;;;;;;0.30;0.30;;;;;;;19.25;31.35;101843.28;5122176;28;20047;-32
2022/03/08 06:14:20;;;;;;;0.20;0.20;;;;;;;19.23;31.45;101841.88;5118547;28;20040;-34
2022/03/08 06:16:45;;;;;;;0.30;0.30;;;;;;;19.25;31.29;101834.16;5121824;28;20435;-33
2022/03/08 06:19:11;;;;;;;0.20;0.20;;;;;;;19.25;31.35;101836.91;5123051;27;20145;-30
2022/03/08 06:21:37;;;;;;;0.30;0.30;;;;;;;19.26;31.56;101830.31;5118674;28;20043;-31
2022/03/08 06:24:03;;;;;;;0.20;0.20;;;;;;;19.23;31.30;101836.34;5122261;28;20050;-32
2022/03/08 06:26:31;;;;;;;0.20;0.20;;;;;;;19.24;31.50;101838.84;5121225;27;20074;-29
2022/03/08 06:28:57;;;;;;;0.20;0.20;;;;;;;19.23;31.42;101839.94;5122835;28;20296;-31
2022/03/08 06:31:22;;;;;;;0.20;0.20;;;;;;;19.23;31.42;101850.16;5120907;27;20527;-33
2022/03/08 06:33:48;;;;;;;0.20;0.20;;;;;;;19.26;31.40;101844.13;5124642;27;20401;-31
2022/03/08 06:36:14;;;;;;;0.20;0.20;;;;;;;19.26;31.28;101849.66;5125353;28;20737;-31
2022/03/08 06:38:39;;;;;;;0.20;0.20;;;;;;;19.24;31.54;101841.63;5125125;28;20066;-33
2022/03/08 06:41:05;;;;;;;0.30;0.30;;;;;;;19.23;31.49;101839.13;5124945;28;20946;-31
2022/03/08 06:43:31;;;;;;;0.20;0.20;;;;;;;19.23;31.23;101844.66;5122714;28;20449;-34
2022/03/08 06:45:56;;;;;;;0.20;0.20;;;;;;;19.23;31.42;101839.13;5103129;28;20035;-32
2022/03/08 06:48:23;;;;;;;0.20;0.20;;;;;;;19.23;31.30;101844.66;5124800;28;20532;-32
2022/03/08 06:50:49;;;;;;;0.30;0.30;;;;;;;19.24;31.56;101847.13;5118667;28;20076;-32
2022/03/08 06:53:14;;;;;;;0.20;0.20;;;;;;;19.23;31.37;101859.28;5122098;28;20074;-35
2022/03/08 06:55:40;;;;;;;0.20;0.20;;;;;;;19.25;31.41;101850.72;5125469;28;20382;-32
2022/03/08 06:58:06;;;;;;;0.28;0.28;;;;;;;19.22;31.62;101843.81;5124493;28;20496;-34
2022/03/08 07:00:31;;;;;;;0.20;0.20;;;;;;;19.23;31.37;101853.75;5121833;28;20051;-33
2022/03/08 07:02:57;;;;;;;0.20;0.20;;;;;;;19.22;31.55;101852.09;5124120;28;20394;-33
2022/03/08 07:05:23;;;;;;;0.20;0.20;;;;;;;19.24;31.58;101844.38;5122220;28;20135;-34
2022/03/08 07:07:49;;;;;;;0.20;0.20;;;;;;;19.15;30.02;101848.69;5123622;28;20278;-33
2022/03/08 07:10:15;;;;;;;0.30;0.30;;;;;;;19.24;30.49;101849.91;5121974;28;20050;-30
2022/03/08 07:12:41;;;;;;;0.20;0.20;;;;;;;19.16;29.09;101857.81;5123239;28;20035;-33
2022/03/08 07:15:07;;;;;;;0.25;0.25;;;;;;;19.22;29.54;101848.50;5124360;28;20065;-32
2022/03/08 07:17:33;;;;;;;0.20;0.20;;;;;;;19.25;30.03;101843.28;5123726;28;20046;-32
2022/03/08 07:19:58;;;;;;;0.25;0.25;;;;;;;19.25;30.17;101845.19;5124963;28;20058;-32
2022/03/08 07:22:24;;;;;;;0.20;0.20;;;;;;;19.26;30.31;101842.19;5122132;28;20382;-33
2022/03/08 07:24:50;;;;;;;0.20;0.20;;;;;;;19.27;30.25;101843.88;5123380;28;20500;-31
2022/03/08 07:27:16;;;;;;;0.20;0.20;;;;;;;19.29;30.28;101849.13;5122397;28;20166;-36
2022/03/08 07:29:43;;;;;;;0.30;0.30;;;;;;;19.28;30.34;101845.53;5119715;28;20050;-31
2022/03/08 07:32:09;;;;;;;0.20;0.20;;;;;;;19.29;30.50;101852.72;5109408;27;20074;-33
2022/03/08 07:34:35;;;;;;;0.20;0.20;;;;;;;19.29;30.51;101849.13;5123254;27;20482;-33
2022/03/08 07:37:01;;;;;;;0.20;0.20;;;;;;;19.30;30.77;101843.34;5122823;27;20054;-34
2022/03/08 07:39:27;;;;;;;0.20;0.20;;;;;;;19.30;30.46;101851.63;5121522;28;20051;-31
2022/03/08 07:41:54;;;;;;;0.20;0.20;;;;;;;19.32;30.61;101853.31;5102094;28;20440;-31
2022/03/08 07:44:19;;;;;;;0.20;0.20;;;;;;;19.32;30.84;101854.13;5116266;27;20047;-31
2022/03/08 07:46:50;;;;;;;0.20;0.20;;;;;;;19.33;30.48;101849.44;5120271;28;20043;-30
2022/03/08 07:49:16;;;;;;;0.20;0.20;;;;;;;19.32;30.45;101851.38;5117704;27;20135;-31
2022/03/08 07:51:47;;;;;;;0.30;0.30;;;;;;;19.33;30.92;101852.19;5112428;27;20309;-31
2022/03/08 07:54:13;;;;;;;0.20;0.20;;;;;;;19.35;30.64;101850.88;5117943;28;20047;-34
2022/03/08 07:56:39;;;;;;;0.22;0.22;;;;;;;19.40;30.28;101845.38;5118312;27;20051;-31
2022/03/08 07:59:05;;;;;;;0.20;0.20;;;;;;;19.44;30.18;101848.47;5117112;28;20043;-31
2022/03/08 08:01:30;;;;;;;0.20;0.20;;;;;;;19.47;30.09;101853.44;5119728;28;20096;-33
2022/03/08 08:03:57;;;;;;;0.20;0.20;;;;;;;19.46;29.64;101849.03;5119767;28;20151;-35
2022/03/08 08:06:22;;;;;;;0.20;0.20;;;;;;;19.49;29.81;101854.03;5119411;28;20043;-31
2022/03/08 08:08:48;;;;;;;0.20;0.20;;;;;;;19.54;29.82;101851.31;5118515;27;20401;-31
2022/03/08 08:11:14;;;;;;;0.20;0.20;;;;;;;19.54;29.98;101851.31;5119318;28;20051;-32
2022/03/08 08:13:39;;;;;;;0.20;0.20;;;;;;;19.54;30.09;101852.16;5122596;27;20093;-33
2022/03/08 08:16:05;;;;;;;0.20;0.20;;;;;;;19.53;30.30;101847.72;5122198;28;21127;-31
2022/03/08 08:18:31;;;;;;;0.30;0.30;;;;;;;19.57;27.84;101852.75;5117808;28;20058;-32
2022/03/08 08:20:57;;;;;;;0.20;0.20;;;;;;;19.52;28.24;101856.28;5118342;28;20051;-31
2022/03/08 08:23:24;;;;;;;0.20;0.20;;;;;;;19.60;28.46;101857.72;5120403;28;20546;-30
2022/03/08 08:25:50;;;;;;;0.20;0.20;;;;;;;19.54;27.29;101848.56;5118245;28;20067;-42
2022/03/08 08:28:15;;;;;;;0.20;0.20;;;;;;;19.49;27.68;101849.34;5118513;27;20062;-31
2022/03/08 08:30:41;;;;;;;0.20;0.20;;;;;;;19.58;27.39;101846.94;5120199;28;20063;-44
2022/03/08 08:33:07;;;;;;;0.20;0.20;;;;;;;19.63;27.49;101844.25;5119884;28;20389;-32
2022/03/08 08:35:33;;;;;;;0.20;0.20;;;;;;;19.72;27.36;101842.69;5116785;27;20039;-32
2022/03/08 08:37:58;;;;;;;0.20;0.20;;;;;;;19.67;28.11;101839.03;5098218;28;20448;-45
2022/03/08 08:40:24;;;;;;;0.20;0.20;;;;;;;19.82;26.82;101846.63;5104751;28;20054;-41
2022/03/08 08:42:50;;;;;;;0.20;0.20;;;;;;;19.72;24.70;101830.78;5122221;28;20441;-42
2022/03/08 08:45:15;;;;;;;0.20;0.20;;;;;;;19.68;26.51;101836.00;5113433;27;20055;-38
2022/03/08 08:47:41;;;;;;;0.20;0.20;;;;;;;19.69;25.00;101843.22;5107367;27;20481;-40
2022/03/08 08:50:07;;;;;;;0.20;0.20;;;;;;;19.94;26.07;101834.28;5111978;27;20800;-34
2022/03/08 08:52:33;;;;;;;0.20;0.20;;;;;;;19.95;26.99;101830.47;5105450;27;20055;-32
2022/03/08 08:54:59;;;;;;;0.20;0.20;;;;;;;19.97;27.61;101832.94;5103507;27;20155;-33
2022/03/08 08:57:25;;;;;;;0.20;0.20;;;;;;;19.97;27.91;101838.47;5090429;28;20424;-33
2022/03/08 08:59:52;;;;;;;0.20;0.20;;;;;;;19.96;28.23;101834.88;5081062;28;20062;-32
2022/03/08 09:02:17;;;;;;;0.20;0.20;;;;;;;19.95;28.11;101822.16;5096110;27;20192;-32
2022/03/08 09:04:44;;;;;;;0.20;0.20;;;;;;;19.96;28.30;101823.81;5109940;28;20046;-33
2022/03/08 09:07:09;;;;;;;0.20;0.20;;;;;;;19.97;28.31;101816.38;5109033;27;20059;-32
2022/03/08 09:09:35;;;;;;;0.20;0.20;;;;;;;19.98;28.47;101820.78;5110759;28;20035;-35
2022/03/08 09:12:00;;;;;;;0.20;0.20;;;;;;;19.98;28.69;101815.25;5112466;28;20453;-32
2022/03/08 09:14:26;;;;;;;0.20;0.20;;;;;;;20.00;28.67;101810.31;5110169;28;20317;-36
2022/03/08 09:16:54;;;;;;;0.20;0.20;;;;;;;20.01;28.80;101804.50;5111217;28;20182;-34
2022/03/08 09:19:20;;;;;;;0.20;0.20;;;;;;;20.02;28.80;101816.41;5110415;27;20484;-32
2022/03/08 09:21:46;;;;;;;0.20;0.20;;;;;;;20.02;28.98;101805.34;5113033;27;20058;-33
2022/03/08 09:24:12;;;;;;;0.20;0.20;;;;;;;20.02;29.04;101805.34;5112606;28;20046;-32
2022/03/08 09:26:37;;;;;;;0.20;0.20;;;;;;;20.03;28.93;101802.31;5108251;28;20039;-39
2022/03/08 09:29:03;;;;;;;0.20;0.20;;;;;;;20.03;28.98;101798.69;5113118;28;20047;-33
2022/03/08 09:31:29;;;;;;;0.20;0.20;;;;;;;20.04;29.24;101806.75;5112347;27;20056;-34
2022/03/08 09:33:54;;;;;;;0.20;0.20;;;;;;;20.04;28.82;101803.16;5116070;28;20568;-35
2022/03/08 09:36:20;;;;;;;0.20;0.20;;;;;;;20.05;28.91;101807.56;5109236;27;20274;-35
2022/03/08 09:38:46;;;;;;;0.20;0.20;;;;;;;20.05;29.01;101802.03;5115812;28;20225;-36
2022/03/08 09:41:13;;;;;;;0.20;0.20;;;;;;;20.05;28.86;101802.88;5112443;28;20085;-38
2022/03/08 09:43:39;;;;;;;0.20;0.20;;;;;;;20.08;29.00;101797.91;5114376;28;20066;-34
2022/03/08 09:46:06;;;;;;;0.20;0.20;;;;;;;20.08;29.06;101797.91;5117833;28;20503;-33
2022/03/08 09:48:32;;;;;;;0.20;0.20;;;;;;;20.08;29.15;101807.06;5119565;27;20045;-34
2022/03/08 09:51:00;;;;;;;0.20;0.20;;;;;;;20.09;29.30;101792.13;5114138;28;20042;-37
2022/03/08 09:53:29;;;;;;;0.20;0.20;;;;;;;20.10;28.98;101791.00;5117708;28;20501;-35
2022/03/08 09:55:59;;;;;;;0.20;0.20;;;;;;;20.10;29.35;101788.25;5115126;27;20108;-34
2022/03/08 09:58:29;;;;;;;0.20;0.20;;;;;;;20.10;29.14;101788.25;5113249;28;20092;-38
2022/03/08 10:00:58;;;;;;;0.20;0.20;;;;;;;20.11;29.35;101783.56;5117277;28;20085;-35
2022/03/08 10:03:43;;;;;;;0.20;0.20;;;;;;;20.10;29.09;101781.91;5120195;28;20047;-32
2022/03/08 10:06:10;;;;;;;0.20;0.20;;;;;;;20.10;29.36;101779.13;5102170;28;20044;-35
2022/03/08 10:08:36;;;;;;;0.20;0.20;;;;;;;20.10;29.41;101779.97;5067957;28;20039;-33
2022/03/08 10:11:05;;;;;;;0.20;0.20;;;;;;;20.09;29.25;101775.53;5089306;28;20047;-32
2022/03/08 10:13:50;;;;;;;0.20;0.20;;;;;;;20.08;29.17;101768.34;5082111;27;20165;-38
2022/03/08 10:16:23;;;;;;;0.20;0.20;;;;;;;20.07;29.72;101765.81;5084697;28;20533;-30
2022/03/08 10:18:55;;;;;;;0.20;0.20;;;;;;;20.05;29.34;101758.63;5070136;28;20047;-33
2022/03/08 10:21:26;;;;;;;0.20;0.20;;;;;;;20.07;29.40;101763.88;5082866;28;20035;-33
2022/03/08 10:23:52;;;;;;;0.20;0.20;;;;;;;20.05;29.60;101771.63;5088999;28;20112;-35
2022/03/08 10:26:19;;;;;;;0.20;0.20;;;;;;;20.05;29.33;101763.34;5065890;28;20085;-33
2022/03/08 10:28:47;;;;;;;0.20;0.20;;;;;;;20.04;29.79;101756.97;5079448;28;20051;-37
2022/03/08 10:31:14;;;;;;;0.20;0.20;;;;;;;20.04;29.58;101756.97;5087666;28;20043;-34
2022/03/08 10:33:40;;;;;;;0.20;0.20;;;;;;;20.03;29.60;101760.00;5085248;28;20082;-35
2022/03/08 10:36:13;;;;;;;0.20;0.20;;;;;;;20.03;29.75;101752.56;5088954;28;20048;-36
2022/03/08 10:38:41;;;;;;;0.20;0.20;;;;;;;20.03;29.54;101752.56;5060186;28;20449;-35
2022/03/08 10:41:22;;;;;;;;;;;;;;;20.02;29.47;101759.16;5079448;27;20059;-40
2022/03/08 10:43:49;;;;;;;0.20;0.20;;;;;;;20.02;29.67;101747.28;5080269;28;20246;-34
2022/03/08 10:46:16;;;;;;;0.20;0.20;;;;;;;20.01;29.85;101732.63;5081472;27;20095;-38
2022/03/08 10:48:42;;;;;;;0.20;0.20;;;;;;;20.01;29.72;101742.84;5081301;27;20054;-37
2022/03/08 10:51:14;;;;;;;0.20;0.20;;;;;;;20.01;29.76;101737.31;5087340;27;20183;-40
2022/03/08 10:53:42;;;;;;;0.20;0.20;;;;;;;19.99;29.67;101740.34;5055852;27;20038;-33
2022/03/08 10:56:09;;;;;;;0.20;0.20;;;;;;;19.99;29.85;101723.78;5091926;27;20246;-38
2022/03/08 10:58:47;;;;;;;0.20;0.20;;;;;;;19.98;29.79;101718.50;5072293;28;20175;-36
2022/03/08 11:01:12;;;;;;;;;;;;;;;19.95;29.43;101730.94;5086277;27;20100;-38
2022/03/08 11:03:39;;;;;;;0.30;0.30;;;;;;;20.00;29.18;101719.06;5078815;27;20002;-35
2022/03/08 11:06:06;;;;;;;0.20;0.20;;;;;;;20.00;29.32;101719.91;5084164;27;20043;-38
2022/03/08 11:08:33;;;;;;;0.20;0.20;;;;;;;20.00;29.65;101721.84;5081148;28;20497;-36
2022/03/08 11:10:59;;;;;;;0.20;0.20;;;;;;;20.00;29.53;101716.31;5086531;27;20305;-33
2022/03/08 11:13:25;;;;;;;0.20;0.20;;;;;;;20.00;29.54;101710.78;5088293;28;20155;-37
2022/03/08 11:15:51;;;;;;;0.20;0.20;;;;;;;20.01;29.60;101712.44;5083548;27;20470;-35
2022/03/08 11:18:17;;;;;;;0.20;0.20;;;;;;;20.00;29.67;101711.59;5087112;27;20046;-33
2022/03/08 11:20:44;;;;;;;0.20;0.20;;;;;;;20.01;29.65;101717.97;5079535;28;21446;-36
2022/03/08 11:23:10;;;;;;;0.20;0.20;;;;;;;20.01;29.74;101718.78;5089683;27;20055;-33